sensor_id;sensor_type;location;lat;lon;timestamp;P1;durP1;ratioP1;P2;durP2;ratioP2
78298;SDS011;67556;55.656;12.590;2023-04-25T00:00:56;5.43;;;3.75;;
78298;SDS011;67556;55.656;12.590;2023-04-25T00:03:22;5.45;;;4.03;;
78298;SDS011;67556;55.656;12.590;2023-04-25T00:05:51;6.05;;;4.53;;
78298;SDS011;67556;55.656;12.590;2023-04-25T00:08:19;6.28;;;3.83;;
78298;SDS011;67556;55.656;12.590;2023-04-25T00:10:46;3.92;;;3.08;;
78298;SDS011;67556;55.656;12.590;2023-04-25T00:13:13;2.75;;;2.42;;
78298;SDS011;67556;55.656;12.590;2023-04-25T00:15:43;3.70;;;2.55;;
78298;SDS011;67556;55.656;12.590;2023-04-25T00:18:11;3.60;;;2.42;;
78298;SDS011;67556;55.656;12.590;2023-04-25T00:20:37;5.13;;;3.10;;
78298;SDS011;67556;55.656;12.590;2023-04-25T00:23:10;3.88;;;3.00;;
78298;SDS011;67556;55.656;12.590;2023-04-25T00:25:38;5.55;;;3.00;;
78298;SDS011;67556;55.656;12.590;2023-04-25T00:28:04;7.68;;;4.22;;
78298;SDS011;67556;55.656;12.590;2023-04-25T00:30:30;3.97;;;3.15;;
78298;SDS011;67556;55.656;12.590;2023-04-25T00:32:57;4.45;;;3.08;;
78298;SDS011;67556;55.656;12.590;2023-04-25T00:35:23;3.75;;;3.03;;
78298;SDS011;67556;55.656;12.590;2023-04-25T00:37:50;5.45;;;3.40;;
78298;SDS011;67556;55.656;12.590;2023-04-25T00:40:17;6.65;;;3.65;;
78298;SDS011;67556;55.656;12.590;2023-04-25T00:42:44;4.70;;;3.92;;
78298;SDS011;67556;55.656;12.590;2023-04-25T00:45:13;5.35;;;4.57;;
78298;SDS011;67556;55.656;12.590;2023-04-25T00:47:40;7.07;;;4.60;;
78298;SDS011;67556;55.656;12.590;2023-04-25T00:50:08;6.85;;;4.75;;
78298;SDS011;67556;55.656;12.590;2023-04-25T00:52:35;5.43;;;4.05;;
78298;SDS011;67556;55.656;12.590;2023-04-25T00:55:04;5.43;;;3.83;;
78298;SDS011;67556;55.656;12.590;2023-04-25T00:57:32;6.20;;;3.88;;
78298;SDS011;67556;55.656;12.590;2023-04-25T00:59:59;9.43;;;4.53;;
78298;SDS011;67556;55.656;12.590;2023-04-25T01:02:27;6.75;;;3.80;;
78298;SDS011;67556;55.656;12.590;2023-04-25T01:04:54;5.65;;;4.00;;
78298;SDS011;67556;55.656;12.590;2023-04-25T01:07:22;7.20;;;3.70;;
78298;SDS011;67556;55.656;12.590;2023-04-25T01:09:51;4.43;;;3.30;;
78298;SDS011;67556;55.656;12.590;2023-04-25T01:12:17;5.18;;;4.10;;
78298;SDS011;67556;55.656;12.590;2023-04-25T01:14:44;6.93;;;3.47;;
78298;SDS011;67556;55.656;12.590;2023-04-25T01:17:12;4.65;;;3.58;;
78298;SDS011;67556;55.656;12.590;2023-04-25T01:19:40;6.47;;;3.75;;
78298;SDS011;67556;55.656;12.590;2023-04-25T01:22:08;5.30;;;3.35;;
78298;SDS011;67556;55.656;12.590;2023-04-25T01:24:36;6.38;;;3.17;;
78298;SDS011;67556;55.656;12.590;2023-04-25T01:27:03;4.82;;;3.33;;
78298;SDS011;67556;55.656;12.590;2023-04-25T01:29:32;4.38;;;3.25;;
78298;SDS011;67556;55.656;12.590;2023-04-25T01:31:59;6.88;;;3.17;;
78298;SDS011;67556;55.656;12.590;2023-04-25T01:34:27;5.85;;;3.35;;
78298;SDS011;67556;55.656;12.590;2023-04-25T01:36:53;4.55;;;3.05;;
78298;SDS011;67556;55.656;12.590;2023-04-25T01:39:21;3.95;;;2.70;;
78298;SDS011;67556;55.656;12.590;2023-04-25T01:41:48;3.90;;;3.20;;
78298;SDS011;67556;55.656;12.590;2023-04-25T01:44:15;4.88;;;3.28;;
78298;SDS011;67556;55.656;12.590;2023-04-25T01:46:42;2.97;;;2.55;;
78298;SDS011;67556;55.656;12.590;2023-04-25T01:49:08;3.67;;;2.67;;
78298;SDS011;67556;55.656;12.590;2023-04-25T01:51:38;3.88;;;3.05;;
78298;SDS011;67556;55.656;12.590;2023-04-25T01:54:06;5.47;;;3.20;;
78298;SDS011;67556;55.656;12.590;2023-04-25T01:56:36;6.57;;;3.30;;
78298;SDS011;67556;55.656;12.590;2023-04-25T01:59:04;4.53;;;2.83;;
78298;SDS011;67556;55.656;12.590;2023-04-25T02:01:31;4.05;;;2.65;;
78298;SDS011;67556;55.656;12.590;2023-04-25T02:03:57;4.50;;;2.78;;
78298;SDS011;67556;55.656;12.590;2023-04-25T02:06:25;5.35;;;3.08;;
78298;SDS011;67556;55.656;12.590;2023-04-25T02:08:51;4.60;;;3.53;;
78298;SDS011;67556;55.656;12.590;2023-04-25T02:11:18;3.63;;;3.17;;
78298;SDS011;67556;55.656;12.590;2023-04-25T02:13:45;6.40;;;3.22;;
78298;SDS011;67556;55.656;12.590;2023-04-25T02:16:12;6.15;;;3.67;;
78298;SDS011;67556;55.656;12.590;2023-04-25T02:18:39;5.88;;;3.22;;
78298;SDS011;67556;55.656;12.590;2023-04-25T02:21:05;4.60;;;3.38;;
78298;SDS011;67556;55.656;12.590;2023-04-25T02:23:32;5.47;;;3.10;;
78298;SDS011;67556;55.656;12.590;2023-04-25T02:25:59;5.20;;;3.17;;
78298;SDS011;67556;55.656;12.590;2023-04-25T02:28:26;5.13;;;3.05;;
78298;SDS011;67556;55.656;12.590;2023-04-25T02:30:54;5.18;;;3.50;;
78298;SDS011;67556;55.656;12.590;2023-04-25T02:33:20;6.55;;;3.55;;
78298;SDS011;67556;55.656;12.590;2023-04-25T02:35:47;8.90;;;3.60;;
78298;SDS011;67556;55.656;12.590;2023-04-25T02:38:13;6.60;;;3.67;;
78298;SDS011;67556;55.656;12.590;2023-04-25T02:40:40;5.78;;;3.92;;
78298;SDS011;67556;55.656;12.590;2023-04-25T02:43:09;10.65;;;3.85;;
78298;SDS011;67556;55.656;12.590;2023-04-25T02:45:36;9.60;;;3.63;;
78298;SDS011;67556;55.656;12.590;2023-04-25T02:48:04;5.93;;;3.97;;
78298;SDS011;67556;55.656;12.590;2023-04-25T02:50:31;6.25;;;3.38;;
78298;SDS011;67556;55.656;12.590;2023-04-25T02:52:58;8.93;;;4.00;;
78298;SDS011;67556;55.656;12.590;2023-04-25T02:55:25;8.98;;;3.88;;
78298;SDS011;67556;55.656;12.590;2023-04-25T02:57:52;5.65;;;3.33;;
78298;SDS011;67556;55.656;12.590;2023-04-25T03:02:56;8.35;;;3.72;;
78298;SDS011;67556;55.656;12.590;2023-04-25T03:05:24;7.85;;;3.63;;
78298;SDS011;67556;55.656;12.590;2023-04-25T03:07:51;7.55;;;3.47;;
78298;SDS011;67556;55.656;12.590;2023-04-25T03:10:17;5.60;;;3.28;;
78298;SDS011;67556;55.656;12.590;2023-04-25T03:12:44;12.05;;;4.03;;
78298;SDS011;67556;55.656;12.590;2023-04-25T03:15:10;7.57;;;3.92;;
78298;SDS011;67556;55.656;12.590;2023-04-25T03:17:37;7.43;;;3.22;;
78298;SDS011;67556;55.656;12.590;2023-04-25T03:20:04;10.45;;;3.67;;
78298;SDS011;67556;55.656;12.590;2023-04-25T03:22:37;7.25;;;3.22;;
78298;SDS011;67556;55.656;12.590;2023-04-25T03:25:05;8.32;;;3.20;;
78298;SDS011;67556;55.656;12.590;2023-04-25T03:27:33;10.80;;;4.38;;
78298;SDS011;67556;55.656;12.590;2023-04-25T03:29:59;8.25;;;3.80;;
78298;SDS011;67556;55.656;12.590;2023-04-25T03:32:26;6.22;;;3.50;;
78298;SDS011;67556;55.656;12.590;2023-04-25T03:34:52;7.60;;;3.70;;
78298;SDS011;67556;55.656;12.590;2023-04-25T03:37:19;7.20;;;3.75;;
78298;SDS011;67556;55.656;12.590;2023-04-25T03:39:47;7.70;;;3.60;;
78298;SDS011;67556;55.656;12.590;2023-04-25T03:42:13;7.75;;;3.65;;
78298;SDS011;67556;55.656;12.590;2023-04-25T03:44:40;7.55;;;3.72;;
78298;SDS011;67556;55.656;12.590;2023-04-25T03:47:06;7.43;;;3.30;;
78298;SDS011;67556;55.656;12.590;2023-04-25T03:49:33;8.00;;;3.67;;
78298;SDS011;67556;55.656;12.590;2023-04-25T03:52:00;6.85;;;3.22;;
78298;SDS011;67556;55.656;12.590;2023-04-25T03:54:27;8.15;;;3.60;;
78298;SDS011;67556;55.656;12.590;2023-04-25T03:56:57;5.13;;;3.60;;
78298;SDS011;67556;55.656;12.590;2023-04-25T03:59:23;8.68;;;4.20;;
78298;SDS011;67556;55.656;12.590;2023-04-25T04:01:50;9.57;;;4.25;;
78298;SDS011;67556;55.656;12.590;2023-04-25T04:04:16;7.03;;;4.53;;
78298;SDS011;67556;55.656;12.590;2023-04-25T04:06:43;10.35;;;4.45;;
78298;SDS011;67556;55.656;12.590;2023-04-25T04:09:12;11.13;;;5.78;;
78298;SDS011;67556;55.656;12.590;2023-04-25T04:11:38;10.15;;;5.38;;
78298;SDS011;67556;55.656;12.590;2023-04-25T04:14:08;10.38;;;5.32;;
78298;SDS011;67556;55.656;12.590;2023-04-25T04:16:35;8.85;;;4.38;;
78298;SDS011;67556;55.656;12.590;2023-04-25T04:19:02;8.65;;;5.00;;
78298;SDS011;67556;55.656;12.590;2023-04-25T04:21:29;10.60;;;4.95;;
78298;SDS011;67556;55.656;12.590;2023-04-25T04:23:55;10.65;;;4.57;;
78298;SDS011;67556;55.656;12.590;2023-04-25T04:26:22;9.77;;;5.00;;
78298;SDS011;67556;55.656;12.590;2023-04-25T04:28:55;9.65;;;5.07;;
78298;SDS011;67556;55.656;12.590;2023-04-25T04:31:25;9.48;;;5.43;;
78298;SDS011;67556;55.656;12.590;2023-04-25T04:33:52;8.13;;;4.30;;
78298;SDS011;67556;55.656;12.590;2023-04-25T04:36:18;16.80;;;5.60;;
78298;SDS011;67556;55.656;12.590;2023-04-25T04:38:48;10.07;;;5.63;;
78298;SDS011;67556;55.656;12.590;2023-04-25T04:41:14;13.65;;;4.88;;
78298;SDS011;67556;55.656;12.590;2023-04-25T04:43:41;8.63;;;4.70;;
78298;SDS011;67556;55.656;12.590;2023-04-25T04:46:08;10.02;;;4.63;;
78298;SDS011;67556;55.656;12.590;2023-04-25T04:48:36;10.45;;;4.43;;
78298;SDS011;67556;55.656;12.590;2023-04-25T04:51:06;9.20;;;4.45;;
78298;SDS011;67556;55.656;12.590;2023-04-25T04:53:33;11.00;;;4.68;;
78298;SDS011;67556;55.656;12.590;2023-04-25T04:56:00;10.27;;;4.90;;
78298;SDS011;67556;55.656;12.590;2023-04-25T04:58:26;11.50;;;5.80;;
78298;SDS011;67556;55.656;12.590;2023-04-25T05:00:54;10.60;;;4.63;;
78298;SDS011;67556;55.656;12.590;2023-04-25T05:03:21;6.28;;;4.20;;
78298;SDS011;67556;55.656;12.590;2023-04-25T05:05:48;6.90;;;4.15;;
78298;SDS011;67556;55.656;12.590;2023-04-25T05:08:15;8.73;;;4.05;;
78298;SDS011;67556;55.656;12.590;2023-04-25T05:10:41;9.57;;;4.40;;
78298;SDS011;67556;55.656;12.590;2023-04-25T05:13:08;7.70;;;3.92;;
78298;SDS011;67556;55.656;12.590;2023-04-25T05:15:36;10.23;;;4.65;;
78298;SDS011;67556;55.656;12.590;2023-04-25T05:18:03;13.55;;;4.97;;
78298;SDS011;67556;55.656;12.590;2023-04-25T05:20:29;8.95;;;4.80;;
78298;SDS011;67556;55.656;12.590;2023-04-25T05:22:57;14.45;;;5.32;;
78298;SDS011;67556;55.656;12.590;2023-04-25T05:25:24;11.13;;;4.93;;
78298;SDS011;67556;55.656;12.590;2023-04-25T05:27:50;9.77;;;4.97;;
78298;SDS011;67556;55.656;12.590;2023-04-25T05:30:17;8.30;;;4.45;;
78298;SDS011;67556;55.656;12.590;2023-04-25T05:32:45;11.13;;;6.28;;
78298;SDS011;67556;55.656;12.590;2023-04-25T05:35:11;8.65;;;4.50;;
78298;SDS011;67556;55.656;12.590;2023-04-25T05:37:39;11.60;;;4.97;;
78298;SDS011;67556;55.656;12.590;2023-04-25T05:40:07;13.25;;;5.25;;
78298;SDS011;67556;55.656;12.590;2023-04-25T05:42:35;10.05;;;4.82;;
78298;SDS011;67556;55.656;12.590;2023-04-25T05:45:02;9.35;;;5.10;;
78298;SDS011;67556;55.656;12.590;2023-04-25T05:47:29;14.20;;;6.25;;
78298;SDS011;67556;55.656;12.590;2023-04-25T05:49:57;10.38;;;6.03;;
78298;SDS011;67556;55.656;12.590;2023-04-25T05:52:23;8.52;;;5.45;;
78298;SDS011;67556;55.656;12.590;2023-04-25T05:54:50;13.02;;;5.47;;
78298;SDS011;67556;55.656;12.590;2023-04-25T05:57:21;12.45;;;6.18;;
78298;SDS011;67556;55.656;12.590;2023-04-25T05:59:48;16.23;;;5.13;;
78298;SDS011;67556;55.656;12.590;2023-04-25T06:02:15;8.73;;;5.07;;
78298;SDS011;67556;55.656;12.590;2023-04-25T06:04:41;15.82;;;5.43;;
78298;SDS011;67556;55.656;12.590;2023-04-25T06:07:08;9.73;;;4.72;;
78298;SDS011;67556;55.656;12.590;2023-04-25T06:09:34;10.02;;;4.72;;
78298;SDS011;67556;55.656;12.590;2023-04-25T06:12:01;14.00;;;5.63;;
78298;SDS011;67556;55.656;12.590;2023-04-25T06:14:29;8.25;;;4.53;;
78298;SDS011;67556;55.656;12.590;2023-04-25T06:16:56;12.77;;;4.82;;
78298;SDS011;67556;55.656;12.590;2023-04-25T06:19:22;8.98;;;4.63;;
78298;SDS011;67556;55.656;12.590;2023-04-25T06:21:49;14.30;;;5.25;;
78298;SDS011;67556;55.656;12.590;2023-04-25T06:24:15;12.07;;;5.72;;
78298;SDS011;67556;55.656;12.590;2023-04-25T06:26:48;11.98;;;4.88;;
78298;SDS011;67556;55.656;12.590;2023-04-25T06:29:14;13.05;;;4.65;;
78298;SDS011;67556;55.656;12.590;2023-04-25T06:31:42;17.60;;;6.32;;
78298;SDS011;67556;55.656;12.590;2023-04-25T06:34:09;17.63;;;5.20;;
78298;SDS011;67556;55.656;12.590;2023-04-25T06:36:41;11.77;;;5.47;;
78298;SDS011;67556;55.656;12.590;2023-04-25T06:39:09;13.32;;;5.35;;
78298;SDS011;67556;55.656;12.590;2023-04-25T06:41:43;15.73;;;6.18;;
78298;SDS011;67556;55.656;12.590;2023-04-25T06:44:10;16.80;;;5.07;;
78298;SDS011;67556;55.656;12.590;2023-04-25T06:46:36;11.15;;;5.13;;
78298;SDS011;67556;55.656;12.590;2023-04-25T06:49:04;15.18;;;5.68;;
78298;SDS011;67556;55.656;12.590;2023-04-25T06:51:31;13.00;;;5.65;;
78298;SDS011;67556;55.656;12.590;2023-04-25T06:53:57;12.13;;;5.40;;
78298;SDS011;67556;55.656;12.590;2023-04-25T06:56:24;13.88;;;5.32;;
78298;SDS011;67556;55.656;12.590;2023-04-25T06:58:51;13.55;;;5.95;;
78298;SDS011;67556;55.656;12.590;2023-04-25T07:01:17;11.10;;;5.47;;
78298;SDS011;67556;55.656;12.590;2023-04-25T07:03:44;19.80;;;5.68;;
78298;SDS011;67556;55.656;12.590;2023-04-25T07:06:11;17.40;;;6.28;;
78298;SDS011;67556;55.656;12.590;2023-04-25T07:08:38;14.30;;;6.35;;
78298;SDS011;67556;55.656;12.590;2023-04-25T07:11:04;17.65;;;5.97;;
78298;SDS011;67556;55.656;12.590;2023-04-25T07:13:31;19.02;;;5.82;;
78298;SDS011;67556;55.656;12.590;2023-04-25T07:15:57;16.33;;;6.30;;
78298;SDS011;67556;55.656;12.590;2023-04-25T07:18:24;17.42;;;6.13;;
78298;SDS011;67556;55.656;12.590;2023-04-25T07:20:50;13.65;;;6.00;;
78298;SDS011;67556;55.656;12.590;2023-04-25T07:23:18;44.55;;;7.50;;
78298;SDS011;67556;55.656;12.590;2023-04-25T07:25:45;14.98;;;6.43;;
78298;SDS011;67556;55.656;12.590;2023-04-25T07:28:12;20.45;;;6.53;;
78298;SDS011;67556;55.656;12.590;2023-04-25T07:30:39;18.63;;;5.38;;
78298;SDS011;67556;55.656;12.590;2023-04-25T07:33:06;17.35;;;5.43;;
78298;SDS011;67556;55.656;12.590;2023-04-25T07:35:32;15.20;;;5.68;;
78298;SDS011;67556;55.656;12.590;2023-04-25T07:37:59;12.00;;;4.65;;
78298;SDS011;67556;55.656;12.590;2023-04-25T07:40:28;18.02;;;6.57;;
78298;SDS011;67556;55.656;12.590;2023-04-25T07:42:55;13.48;;;5.72;;
78298;SDS011;67556;55.656;12.590;2023-04-25T07:45:22;18.42;;;6.22;;
78298;SDS011;67556;55.656;12.590;2023-04-25T07:47:50;12.60;;;5.65;;
78298;SDS011;67556;55.656;12.590;2023-04-25T07:50:22;17.88;;;6.22;;
78298;SDS011;67556;55.656;12.590;2023-04-25T07:52:50;17.15;;;5.55;;
78298;SDS011;67556;55.656;12.590;2023-04-25T07:55:17;21.15;;;6.80;;
78298;SDS011;67556;55.656;12.590;2023-04-25T07:57:45;10.40;;;4.65;;
78298;SDS011;67556;55.656;12.590;2023-04-25T08:00:12;14.52;;;6.05;;
78298;SDS011;67556;55.656;12.590;2023-04-25T08:02:41;12.25;;;5.30;;
78298;SDS011;67556;55.656;12.590;2023-04-25T08:05:08;14.82;;;6.28;;
78298;SDS011;67556;55.656;12.590;2023-04-25T08:07:36;11.93;;;5.18;;
78298;SDS011;67556;55.656;12.590;2023-04-25T08:10:05;16.30;;;5.50;;
78298;SDS011;67556;55.656;12.590;2023-04-25T08:12:33;13.05;;;4.65;;
78298;SDS011;67556;55.656;12.590;2023-04-25T08:15:03;21.90;;;6.82;;
78298;SDS011;67556;55.656;12.590;2023-04-25T08:17:36;12.60;;;5.60;;
78298;SDS011;67556;55.656;12.590;2023-04-25T08:20:06;16.10;;;5.28;;
78298;SDS011;67556;55.656;12.590;2023-04-25T08:22:33;15.23;;;5.00;;
78298;SDS011;67556;55.656;12.590;2023-04-25T08:25:02;12.05;;;4.45;;
78298;SDS011;67556;55.656;12.590;2023-04-25T08:27:30;15.18;;;5.07;;
78298;SDS011;67556;55.656;12.590;2023-04-25T08:29:58;14.98;;;5.82;;
78298;SDS011;67556;55.656;12.590;2023-04-25T08:32:26;10.68;;;4.38;;
78298;SDS011;67556;55.656;12.590;2023-04-25T08:34:54;11.20;;;4.70;;
78298;SDS011;67556;55.656;12.590;2023-04-25T08:37:21;15.80;;;4.97;;
78298;SDS011;67556;55.656;12.590;2023-04-25T08:39:50;11.68;;;4.50;;
78298;SDS011;67556;55.656;12.590;2023-04-25T08:42:17;15.77;;;4.95;;
78298;SDS011;67556;55.656;12.590;2023-04-25T08:44:44;11.05;;;4.15;;
78298;SDS011;67556;55.656;12.590;2023-04-25T08:47:12;16.13;;;4.78;;
78298;SDS011;67556;55.656;12.590;2023-04-25T08:49:40;15.65;;;4.82;;
78298;SDS011;67556;55.656;12.590;2023-04-25T08:52:13;13.27;;;4.57;;
78298;SDS011;67556;55.656;12.590;2023-04-25T08:54:41;12.52;;;4.65;;
78298;SDS011;67556;55.656;12.590;2023-04-25T08:57:09;10.07;;;3.92;;
78298;SDS011;67556;55.656;12.590;2023-04-25T08:59:37;13.93;;;4.13;;
78298;SDS011;67556;55.656;12.590;2023-04-25T09:02:06;9.60;;;3.65;;
78298;SDS011;67556;55.656;12.590;2023-04-25T09:04:34;13.55;;;3.80;;
78298;SDS011;67556;55.656;12.590;2023-04-25T09:07:02;10.38;;;3.85;;
78298;SDS011;67556;55.656;12.590;2023-04-25T09:09:31;9.43;;;3.72;;
78298;SDS011;67556;55.656;12.590;2023-04-25T09:11:58;11.38;;;3.38;;
78298;SDS011;67556;55.656;12.590;2023-04-25T09:14:26;12.68;;;4.22;;
78298;SDS011;67556;55.656;12.590;2023-04-25T09:17:03;9.55;;;4.07;;
78298;SDS011;67556;55.656;12.590;2023-04-25T09:19:34;7.43;;;3.83;;
78298;SDS011;67556;55.656;12.590;2023-04-25T09:22:05;11.13;;;4.22;;
78298;SDS011;67556;55.656;12.590;2023-04-25T09:24:33;12.60;;;4.40;;
78298;SDS011;67556;55.656;12.590;2023-04-25T09:27:03;13.00;;;6.03;;
78298;SDS011;67556;55.656;12.590;2023-04-25T09:29:31;12.27;;;4.70;;
78298;SDS011;67556;55.656;12.590;2023-04-25T09:32:13;14.30;;;4.30;;
78298;SDS011;67556;55.656;12.590;2023-04-25T09:34:49;11.07;;;4.47;;
78298;SDS011;67556;55.656;12.590;2023-04-25T09:37:20;13.10;;;4.68;;
78298;SDS011;67556;55.656;12.590;2023-04-25T09:39:49;14.85;;;4.43;;
78298;SDS011;67556;55.656;12.590;2023-04-25T09:42:28;11.80;;;3.95;;
78298;SDS011;67556;55.656;12.590;2023-04-25T09:44:56;12.75;;;3.85;;
78298;SDS011;67556;55.656;12.590;2023-04-25T09:47:25;10.00;;;3.53;;
78298;SDS011;67556;55.656;12.590;2023-04-25T09:49:54;10.52;;;3.28;;
78298;SDS011;67556;55.656;12.590;2023-04-25T09:52:23;9.50;;;3.08;;
78298;SDS011;67556;55.656;12.590;2023-04-25T09:54:52;7.95;;;3.10;;
78298;SDS011;67556;55.656;12.590;2023-04-25T09:57:19;9.35;;;3.53;;
78298;SDS011;67556;55.656;12.590;2023-04-25T09:59:48;13.80;;;3.83;;
78298;SDS011;67556;55.656;12.590;2023-04-25T10:02:18;10.70;;;4.20;;
78298;SDS011;67556;55.656;12.590;2023-04-25T10:04:47;12.48;;;4.50;;
78298;SDS011;67556;55.656;12.590;2023-04-25T10:07:17;10.63;;;3.45;;
78298;SDS011;67556;55.656;12.590;2023-04-25T10:09:48;11.02;;;3.10;;
78298;SDS011;67556;55.656;12.590;2023-04-25T10:12:15;9.15;;;3.53;;
78298;SDS011;67556;55.656;12.590;2023-04-25T10:14:42;10.88;;;3.42;;
78298;SDS011;67556;55.656;12.590;2023-04-25T10:17:09;9.18;;;3.85;;
78298;SDS011;67556;55.656;12.590;2023-04-25T10:19:37;14.82;;;4.05;;
78298;SDS011;67556;55.656;12.590;2023-04-25T10:22:07;9.02;;;3.50;;
78298;SDS011;67556;55.656;12.590;2023-04-25T10:24:34;10.93;;;4.22;;
78298;SDS011;67556;55.656;12.590;2023-04-25T10:27:03;10.85;;;3.92;;
78298;SDS011;67556;55.656;12.590;2023-04-25T10:29:36;13.90;;;4.32;;
78298;SDS011;67556;55.656;12.590;2023-04-25T10:32:03;11.27;;;3.67;;
78298;SDS011;67556;55.656;12.590;2023-04-25T10:34:38;13.43;;;3.38;;
78298;SDS011;67556;55.656;12.590;2023-04-25T10:37:10;13.07;;;4.05;;
78298;SDS011;67556;55.656;12.590;2023-04-25T10:39:38;11.88;;;3.05;;
78298;SDS011;67556;55.656;12.590;2023-04-25T10:42:07;8.80;;;3.33;;
78298;SDS011;67556;55.656;12.590;2023-04-25T10:44:36;7.88;;;3.72;;
78298;SDS011;67556;55.656;12.590;2023-04-25T10:47:06;13.43;;;4.05;;
78298;SDS011;67556;55.656;12.590;2023-04-25T10:49:36;12.00;;;3.45;;
78298;SDS011;67556;55.656;12.590;2023-04-25T10:52:13;7.55;;;5.18;;
78298;SDS011;67556;55.656;12.590;2023-04-25T10:54:49;9.82;;;3.45;;
78298;SDS011;67556;55.656;12.590;2023-04-25T11:00:16;9.77;;;3.33;;
78298;SDS011;67556;55.656;12.590;2023-04-25T11:02:45;13.70;;;3.63;;
78298;SDS011;67556;55.656;12.590;2023-04-25T11:05:21;10.38;;;3.85;;
78298;SDS011;67556;55.656;12.590;2023-04-25T11:07:51;11.50;;;3.53;;
78298;SDS011;67556;55.656;12.590;2023-04-25T11:10:20;10.43;;;3.45;;
78298;SDS011;67556;55.656;12.590;2023-04-25T11:12:53;8.75;;;3.65;;
78298;SDS011;67556;55.656;12.590;2023-04-25T11:15:19;8.73;;;3.72;;
78298;SDS011;67556;55.656;12.590;2023-04-25T11:17:47;6.47;;;3.05;;
78298;SDS011;67556;55.656;12.590;2023-04-25T11:20:13;11.35;;;3.50;;
78298;SDS011;67556;55.656;12.590;2023-04-25T11:22:41;4.70;;;3.03;;
78298;SDS011;67556;55.656;12.590;2023-04-25T11:25:08;8.32;;;3.78;;
78298;SDS011;67556;55.656;12.590;2023-04-25T11:27:37;9.63;;;3.03;;
78298;SDS011;67556;55.656;12.590;2023-04-25T11:30:14;9.38;;;2.95;;
78298;SDS011;67556;55.656;12.590;2023-04-25T11:32:41;5.95;;;2.83;;
78298;SDS011;67556;55.656;12.590;2023-04-25T11:35:09;8.75;;;3.78;;
78298;SDS011;67556;55.656;12.590;2023-04-25T11:37:38;7.07;;;2.63;;
78298;SDS011;67556;55.656;12.590;2023-04-25T11:40:06;7.18;;;2.83;;
78298;SDS011;67556;55.656;12.590;2023-04-25T11:42:33;6.68;;;2.92;;
78298;SDS011;67556;55.656;12.590;2023-04-25T11:45:01;8.50;;;3.30;;
78298;SDS011;67556;55.656;12.590;2023-04-25T11:47:33;5.10;;;2.75;;
78298;SDS011;67556;55.656;12.590;2023-04-25T11:50:00;6.68;;;2.72;;
78298;SDS011;67556;55.656;12.590;2023-04-25T11:52:38;5.75;;;3.05;;
78298;SDS011;67556;55.656;12.590;2023-04-25T11:57:33;8.52;;;3.22;;
78298;SDS011;67556;55.656;12.590;2023-04-25T12:00:08;9.02;;;3.33;;
78298;SDS011;67556;55.656;12.590;2023-04-25T12:02:44;8.48;;;3.28;;
78298;SDS011;67556;55.656;12.590;2023-04-25T12:05:14;7.55;;;3.17;;
78298;SDS011;67556;55.656;12.590;2023-04-25T12:07:42;10.27;;;3.28;;
78298;SDS011;67556;55.656;12.590;2023-04-25T12:10:11;9.82;;;3.05;;
78298;SDS011;67556;55.656;12.590;2023-04-25T12:12:41;6.93;;;3.05;;
78298;SDS011;67556;55.656;12.590;2023-04-25T12:15:11;6.65;;;2.75;;
78298;SDS011;67556;55.656;12.590;2023-04-25T12:17:44;6.60;;;3.25;;
78298;SDS011;67556;55.656;12.590;2023-04-25T12:20:19;9.90;;;3.22;;
78298;SDS011;67556;55.656;12.590;2023-04-25T12:23:05;8.50;;;2.90;;
78298;SDS011;67556;55.656;12.590;2023-04-25T12:25:34;7.78;;;3.15;;
78298;SDS011;67556;55.656;12.590;2023-04-25T12:28:09;7.18;;;3.47;;
78298;SDS011;67556;55.656;12.590;2023-04-25T12:30:51;6.68;;;3.45;;
78298;SDS011;67556;55.656;12.590;2023-04-25T12:33:21;11.65;;;3.10;;
78298;SDS011;67556;55.656;12.590;2023-04-25T12:35:52;9.73;;;3.33;;
78298;SDS011;67556;55.656;12.590;2023-04-25T12:38:22;9.23;;;2.90;;
78298;SDS011;67556;55.656;12.590;2023-04-25T12:40:52;7.20;;;2.83;;
78298;SDS011;67556;55.656;12.590;2023-04-25T12:43:19;6.00;;;2.53;;
78298;SDS011;67556;55.656;12.590;2023-04-25T12:45:48;7.88;;;2.83;;
78298;SDS011;67556;55.656;12.590;2023-04-25T12:48:16;6.28;;;2.58;;
78298;SDS011;67556;55.656;12.590;2023-04-25T12:50:46;6.95;;;3.25;;
78298;SDS011;67556;55.656;12.590;2023-04-25T12:53:15;8.57;;;2.72;;
78298;SDS011;67556;55.656;12.590;2023-04-25T12:55:48;5.55;;;2.60;;
78298;SDS011;67556;55.656;12.590;2023-04-25T12:58:17;7.47;;;2.95;;
78298;SDS011;67556;55.656;12.590;2023-04-25T13:00:45;7.53;;;3.38;;
78298;SDS011;67556;55.656;12.590;2023-04-25T13:03:13;6.45;;;3.00;;
78298;SDS011;67556;55.656;12.590;2023-04-25T13:05:42;9.45;;;3.20;;
78298;SDS011;67556;55.656;12.590;2023-04-25T13:08:12;7.38;;;3.33;;
78298;SDS011;67556;55.656;12.590;2023-04-25T13:10:39;6.93;;;2.70;;
78298;SDS011;67556;55.656;12.590;2023-04-25T13:13:05;8.25;;;3.22;;
78298;SDS011;67556;55.656;12.590;2023-04-25T13:15:33;6.05;;;3.20;;
78298;SDS011;67556;55.656;12.590;2023-04-25T13:18:01;6.63;;;2.72;;
78298;SDS011;67556;55.656;12.590;2023-04-25T13:20:28;8.30;;;2.90;;
78298;SDS011;67556;55.656;12.590;2023-04-25T13:22:57;9.15;;;3.63;;
78298;SDS011;67556;55.656;12.590;2023-04-25T13:25:25;7.65;;;3.42;;
78298;SDS011;67556;55.656;12.590;2023-04-25T13:27:52;6.63;;;2.63;;
78298;SDS011;67556;55.656;12.590;2023-04-25T13:30:20;5.55;;;3.30;;
78298;SDS011;67556;55.656;12.590;2023-04-25T13:32:47;7.25;;;2.75;;
78298;SDS011;67556;55.656;12.590;2023-04-25T13:35:16;5.88;;;2.72;;
78298;SDS011;67556;55.656;12.590;2023-04-25T13:37:45;7.78;;;2.70;;
78298;SDS011;67556;55.656;12.590;2023-04-25T13:40:13;7.80;;;2.65;;
78298;SDS011;67556;55.656;12.590;2023-04-25T13:42:47;8.55;;;3.13;;
78298;SDS011;67556;55.656;12.590;2023-04-25T13:45:15;5.03;;;2.53;;
78298;SDS011;67556;55.656;12.590;2023-04-25T13:47:42;6.85;;;2.80;;
78298;SDS011;67556;55.656;12.590;2023-04-25T13:50:10;8.38;;;3.13;;
78298;SDS011;67556;55.656;12.590;2023-04-25T13:52:37;5.35;;;2.70;;
78298;SDS011;67556;55.656;12.590;2023-04-25T13:55:06;4.93;;;2.60;;
78298;SDS011;67556;55.656;12.590;2023-04-25T13:57:34;6.05;;;2.80;;
78298;SDS011;67556;55.656;12.590;2023-04-25T14:00:09;6.90;;;3.10;;
78298;SDS011;67556;55.656;12.590;2023-04-25T14:02:36;6.88;;;2.78;;
78298;SDS011;67556;55.656;12.590;2023-04-25T14:05:04;5.93;;;3.20;;
78298;SDS011;67556;55.656;12.590;2023-04-25T14:07:38;10.32;;;3.70;;
78298;SDS011;67556;55.656;12.590;2023-04-25T14:10:05;31.55;;;5.30;;
78298;SDS011;67556;55.656;12.590;2023-04-25T14:12:40;7.22;;;3.05;;
78298;SDS011;67556;55.656;12.590;2023-04-25T14:15:10;8.75;;;3.38;;
78298;SDS011;67556;55.656;12.590;2023-04-25T14:17:38;7.93;;;3.05;;
78298;SDS011;67556;55.656;12.590;2023-04-25T14:20:06;10.05;;;3.03;;
78298;SDS011;67556;55.656;12.590;2023-04-25T14:22:35;7.57;;;3.47;;
78298;SDS011;67556;55.656;12.590;2023-04-25T14:27:34;9.38;;;3.22;;
78298;SDS011;67556;55.656;12.590;2023-04-25T14:30:02;7.72;;;3.85;;
78298;SDS011;67556;55.656;12.590;2023-04-25T14:32:31;6.13;;;2.97;;
78298;SDS011;67556;55.656;12.590;2023-04-25T14:34:59;7.32;;;3.13;;
78298;SDS011;67556;55.656;12.590;2023-04-25T14:37:25;8.50;;;3.30;;
78298;SDS011;67556;55.656;12.590;2023-04-25T14:39:52;7.22;;;2.95;;
78298;SDS011;67556;55.656;12.590;2023-04-25T14:42:19;9.38;;;2.95;;
78298;SDS011;67556;55.656;12.590;2023-04-25T14:44:46;10.20;;;3.22;;